Time;durP1;ratioP1;P1;durP2;ratioP2;P2;SDS_P1;SDS_P2;PMS_P1;PMS_P2;Temp;Humidity;BMP_temperature;BMP_pressure;BME280_temperature;BME280_humidity;BME280_pressure;Samples;Min_cycle;Max_cycle;Signal;HPM_P1;HPM_P2
2022/01/21 00:00:24;;;;;;;4.05;2.40;;;;;;;-3.21;100.00;97072.34;5172272;27;20090;-50
2022/01/21 00:02:51;;;;;;;3.50;1.90;;;;;;;-3.08;100.00;97069.41;5171622;27;20054;-49
2022/01/21 00:05:18;;;;;;;3.70;1.75;;;;;;;-3.21;100.00;97069.66;5171776;27;20087;-50
2022/01/21 00:07:45;;;;;;;5.50;1.80;;;;;;;-3.28;100.00;97078.22;5172029;27;20401;-49
2022/01/21 00:10:11;;;;;;;2.42;1.50;;;;;;;-3.40;100.00;97065.53;5171827;27;20144;-52
2022/01/21 00:12:37;;;;;;;2.10;1.60;;;;;;;-3.39;100.00;97071.69;5171861;27;20042;-49
2022/01/21 00:15:05;;;;;;;4.93;2.05;;;;;;;-3.40;100.00;97048.66;5172222;27;20050;-50
2022/01/21 00:17:33;;;;;;;5.13;1.90;;;;;;;-3.16;100.00;97031.97;5175537;27;20060;-50
2022/01/21 00:30:58;;;;;;;1.65;1.50;;;;;;;-2.89;100.00;97036.78;5148217;27;20429;-52
2022/01/21 00:33:25;;;;;;;6.47;2.55;;;;;;;-2.93;100.00;97027.03;5175343;27;20412;-49
2022/01/21 00:35:51;;;;;;;2.63;2.10;;;;;;;-2.86;100.00;97032.66;5175392;27;20512;-53
2022/01/21 00:38:17;;;;;;;3.78;2.15;;;;;;;-2.81;100.00;97021.72;5175196;27;20142;-51
2022/01/21 00:40:43;;;;;;;2.15;1.85;;;;;;;-2.78;100.00;97025.63;5175385;27;20133;-50
2022/01/21 00:43:16;;;;;;;2.85;1.75;;;;;;;-2.84;100.00;97017.00;5174907;27;20078;-50
2022/01/21 00:45:42;;;;;;;7.07;2.28;;;;;;;-2.87;100.00;97005.03;5175116;27;20046;-51
2022/01/21 00:48:09;;;;;;;4.95;1.80;;;;;;;-2.86;100.00;96995.91;5175099;27;20050;-50
2022/01/21 00:50:36;;;;;;;3.17;2.22;;;;;;;-2.82;100.00;96989.88;5175060;27;20428;-50
2022/01/21 00:53:03;;;;;;;7.80;2.10;;;;;;;-2.71;100.00;96981.06;5175069;27;20053;-52
2022/01/21 00:55:29;;;;;;;5.35;2.53;;;;;;;-2.70;100.00;96973.81;5174436;27;20052;-52
2022/01/21 00:57:56;;;;;;;2.72;2.28;;;;;;;-2.63;100.00;96966.81;5175147;27;20042;-52
2022/01/21 01:00:22;;;;;;;2.65;2.20;;;;;;;-2.56;100.00;96970.84;5174657;27;20062;-50
2022/01/21 01:02:49;;;;;;;2.95;1.90;;;;;;;-2.57;100.00;96962.00;5174978;27;20046;-53
2022/01/21 01:05:15;;;;;;;5.88;2.47;;;;;;;-2.51;100.00;96952.63;5174564;27;20050;-50
2022/01/21 01:07:42;;;;;;;6.40;1.50;;;;;;;-2.57;100.00;96955.84;5174926;27;20050;-54
2022/01/21 01:10:12;;;;;;;3.72;1.80;;;;;;;-2.51;100.00;96943.78;5174510;27;20042;-51
2022/01/21 01:12:52;;;;;;;3.72;2.33;;;;;;;-2.47;100.00;96939.31;5174964;27;20099;-51
2022/01/21 01:20:44;;;;;;;2.50;1.60;;;;;;;-2.30;100.00;96941.00;5173495;27;19923;-50
2022/01/21 01:23:23;;;;;;;2.83;1.63;;;;;;;-2.30;100.00;96939.13;5174124;27;20046;-51
2022/01/21 01:28:34;;;;;;;2.10;1.70;;;;;;;-2.19;100.00;96923.34;5174263;27;20110;-52
2022/01/21 01:31:00;;;;;;;1.83;1.55;;;;;;;-2.20;100.00;96916.41;5174146;27;20489;-51
2022/01/21 01:33:34;;;;;;;2.20;1.40;;;;;;;-2.18;100.00;96912.28;5174239;27;20524;-50
2022/01/21 01:36:01;;;;;;;2.72;1.40;;;;;;;-2.15;100.00;96908.13;5173919;27;20055;-51
2022/01/21 01:38:46;;;;;;;2.60;1.55;;;;;;;-2.13;100.00;96889.81;5174376;27;20412;-50
2022/01/21 01:41:15;;;;;;;3.65;1.70;;;;;;;-2.11;100.00;96895.59;5174060;27;20054;-50
2022/01/21 01:51:45;;;;;;;2.33;1.42;;;;;;;-1.89;100.00;96891.66;5173973;27;20057;-49
2022/01/21 01:54:14;;;;;;;1.45;1.10;;;;;;;-1.87;100.00;96894.00;5173805;27;20054;-51
2022/01/21 01:56:44;;;;;;;1.95;1.70;;;;;;;-1.85;100.00;96887.16;5173290;27;20497;-52
2022/01/21 01:59:10;;;;;;;3.03;1.40;;;;;;;-1.87;100.00;96884.03;5173802;27;20526;-50
2022/01/21 02:01:36;;;;;;;3.30;1.55;;;;;;;-1.86;100.00;96887.53;5173982;27;20515;-50
2022/01/21 02:04:03;;;;;;;1.40;1.10;;;;;;;-1.88;100.00;96874.41;5173482;27;20094;-50
2022/01/21 02:06:29;;;;;;;3.05;1.40;;;;;;;-1.81;100.00;96876.53;5173975;27;20042;-53
2022/01/21 02:08:55;;;;;;;2.35;1.42;;;;;;;-1.77;100.00;96864.75;5173427;27;20052;-52
2022/01/21 02:11:22;;;;;;;1.88;1.20;;;;;;;-1.84;100.00;96859.19;5173550;27;20060;-50
2022/01/21 02:13:56;;;;;;;1.95;1.13;;;;;;;-1.78;100.00;96860.50;5173444;27;20054;-49
2022/01/21 02:16:35;;;;;;;3.23;1.30;;;;;;;-1.78;100.00;96859.75;5173385;27;20500;-51
2022/01/21 02:21:46;;;;;;;;;;;;;;;-1.82;100.00;96845.44;5173877;27;20049;-49
2022/01/21 02:24:17;;;;;;;8.55;1.15;;;;;;;-1.86;100.00;96860.66;5173329;27;19927;-51
2022/01/21 02:26:44;;;;;;;2.13;1.05;;;;;;;-1.78;100.00;96847.09;5173028;27;20424;-51
2022/01/21 02:29:12;;;;;;;1.10;0.93;;;;;;;-1.74;100.00;96847.19;5173524;27;20082;-50
2022/01/21 02:31:40;;;;;;;0.70;0.70;;;;;;;-1.74;100.00;96836.44;5173176;27;20050;-50
2022/01/21 02:34:08;;;;;;;2.58;0.90;;;;;;;-1.68;100.00;96837.75;5173305;27;20424;-49
2022/01/21 02:36:35;;;;;;;0.98;0.85;;;;;;;-1.63;100.00;96826.00;5173299;27;20043;-50
2022/01/21 02:39:03;;;;;;;1.10;0.98;;;;;;;-1.64;100.00;96819.84;5172320;27;20053;-51
2022/01/21 02:41:29;;;;;;;2.92;0.70;;;;;;;-1.71;100.00;96814.28;5173124;27;20058;-50
2022/01/21 02:43:55;;;;;;;0.82;0.82;;;;;;;-1.61;100.00;96805.72;5172892;27;20046;-53
2022/01/21 02:46:22;;;;;;;0.63;0.60;;;;;;;-1.62;100.00;96798.78;5173081;27;20042;-53
2022/01/21 02:48:49;;;;;;;0.50;0.50;;;;;;;-1.61;100.00;96808.41;5172915;27;20500;-52
2022/01/21 02:51:16;;;;;;;1.50;0.90;;;;;;;-1.59;100.00;96806.16;5172670;27;20057;-49
2022/01/21 02:56:28;;;;;;;0.95;0.80;;;;;;;-1.58;100.00;96788.13;5172491;27;20118;-53
2022/01/21 02:58:54;;;;;;;1.45;0.80;;;;;;;-1.56;100.00;96794.75;5173033;27;20441;-51
2022/01/21 03:01:21;;;;;;;3.03;0.63;;;;;;;-1.56;100.00;96794.75;5172841;27;20065;-53
2022/01/21 03:03:48;;;;;;;1.40;0.88;;;;;;;-1.53;100.00;96794.06;5173010;27;20046;-49
2022/01/21 03:06:16;;;;;;;1.75;0.95;;;;;;;-1.53;100.00;96793.28;5172307;27;20090;-52
2022/01/21 03:08:43;;;;;;;0.68;0.57;;;;;;;-1.48;100.00;96784.94;5172851;27;20049;-49
2022/01/21 03:11:11;;;;;;;0.93;0.93;;;;;;;-1.52;100.00;96792.91;5172631;27;20101;-50
2022/01/21 03:13:39;;;;;;;0.60;0.52;;;;;;;-1.54;100.00;96805.91;5172722;27;20042;-51
2022/01/21 03:16:05;;;;;;;1.45;0.68;;;;;;;-1.46;100.00;96821.13;5172436;27;20046;-50
2022/01/21 03:18:31;;;;;;;2.92;0.70;;;;;;;-1.46;100.00;96814.97;5172491;27;20118;-50
2022/01/21 03:20:58;;;;;;;0.75;0.50;;;;;;;-1.45;100.00;96829.94;5172364;27;20417;-49
2022/01/21 03:23:27;;;;;;;0.82;0.60;;;;;;;-1.48;100.00;96834.09;5172333;27;20523;-50
2022/01/21 03:25:53;;;;;;;1.58;0.65;;;;;;;-1.43;100.00;96835.78;5172467;27;20588;-50
2022/01/21 03:28:19;;;;;;;1.17;0.50;;;;;;;-1.42;100.00;96840.03;5172182;27;20046;-51
2022/01/21 03:30:50;;;;;;;2.38;0.77;;;;;;;-1.43;100.00;96849.22;5172483;27;20050;-51
2022/01/21 03:33:16;;;;;;;2.95;0.52;;;;;;;-1.42;100.00;96856.91;5172089;27;20089;-52
2022/01/21 03:35:43;;;;;;;0.93;0.52;;;;;;;-1.41;100.00;96876.50;5172441;27;20046;-50
2022/01/21 03:38:09;;;;;;;0.50;0.50;;;;;;;-1.38;100.00;96883.91;5172120;27;20072;-52
2022/01/21 03:40:35;;;;;;;1.27;0.63;;;;;;;-1.34;100.00;96908.97;5172347;27;20111;-51
2022/01/21 03:43:01;;;;;;;1.13;0.60;;;;;;;-1.31;100.00;96913.66;5172045;27;20470;-51
2022/01/21 03:45:28;;;;;;;3.15;0.70;;;;;;;-1.25;100.00;96919.56;5172218;27;20050;-50
2022/01/21 03:47:55;;;;;;;2.97;0.65;;;;;;;-1.24;100.00;96943.41;5171821;27;20061;-52
2022/01/21 03:50:24;;;;;;;1.67;0.52;;;;;;;-1.23;100.00;96952.28;5172931;27;20516;-52
2022/01/21 03:52:50;;;;;;;2.85;0.77;;;;;;;-1.22;100.00;96957.31;5176129;27;20513;-51
2022/01/21 03:55:17;;;;;;;2.78;0.73;;;;;;;-1.25;100.00;96959.91;5175823;27;20042;-52
2022/01/21 03:57:43;;;;;;;1.83;0.65;;;;;;;-1.27;100.00;96964.81;5175391;27;20057;-50
2022/01/21 04:00:13;;;;;;;0.57;0.57;;;;;;;-1.24;100.00;96967.63;5175640;27;20050;-50
2022/01/21 04:02:39;;;;;;;0.73;0.50;;;;;;;-1.26;100.00;96964.50;5175772;27;20097;-50
2022/01/21 04:05:07;;;;;;;2.80;0.60;;;;;;;-1.29;100.00;96959.81;5175506;27;20184;-51
2022/01/21 04:07:33;;;;;;;0.90;0.60;;;;;;;-1.36;100.00;96953.44;5175807;27;20048;-50
2022/01/21 04:10:00;;;;;;;1.23;0.57;;;;;;;-1.31;100.00;96955.88;5175538;27;20054;-49
2022/01/21 04:12:26;;;;;;;1.95;0.70;;;;;;;-1.26;100.00;96953.75;5175440;27;20420;-50
2022/01/21 04:14:52;;;;;;;0.50;0.50;;;;;;;-1.25;100.00;96949.16;5175314;27;20554;-50
2022/01/21 04:17:18;;;;;;;2.08;0.55;;;;;;;-1.27;100.00;96944.09;5175256;27;20056;-49
2022/01/21 04:19:45;;;;;;;0.80;0.55;;;;;;;-1.23;100.00;96941.53;5175621;27;20428;-52
2022/01/21 04:22:11;;;;;;;1.33;0.75;;;;;;;-1.20;100.00;96947.00;5175432;27;20055;-52
2022/01/21 04:24:38;;;;;;;0.50;0.50;;;;;;;-1.31;100.00;96939.75;5175406;27;20061;-50
2022/01/21 04:27:05;;;;;;;5.43;0.93;;;;;;;-1.44;100.00;96926.34;5175166;27;20591;-49
2022/01/21 04:29:31;;;;;;;1.83;0.70;;;;;;;-1.32;100.00;96914.00;5175199;27;20050;-54
2022/01/21 04:31:57;;;;;;;1.05;0.77;;;;;;;-1.28;100.00;96904.13;5175151;27;20050;-51
2022/01/21 04:34:24;;;;;;;6.38;0.80;;;;;;;-1.24;100.00;96908.47;5175232;27;20504;-50
2022/01/21 04:36:50;;;;;;;1.55;0.65;;;;;;;-1.28;100.00;96912.19;5174750;27;20054;-50
2022/01/21 04:39:24;;;;;;;0.90;0.73;;;;;;;-1.35;100.00;96922.75;5175026;27;20133;-50
2022/01/21 04:47:19;;;;;;;0.75;0.60;;;;;;;-1.23;100.00;96938.84;5175177;27;20053;-51
2022/01/21 04:49:45;;;;;;;1.02;0.60;;;;;;;-1.23;100.00;96947.69;5174591;27;20050;-52
2022/01/21 04:52:12;;;;;;;3.08;0.70;;;;;;;-1.26;100.00;96956.44;5175017;27;20046;-49
2022/01/21 04:54:39;;;;;;;5.38;1.05;;;;;;;-1.26;100.00;96963.72;5174435;27;20098;-53
2022/01/21 04:57:06;;;;;;;1.95;0.93;;;;;;;-1.27;100.00;96973.66;5174371;27;20423;-53
2022/01/21 04:59:33;;;;;;;2.63;0.90;;;;;;;-1.28;100.00;96969.44;5174442;27;20046;-52
2022/01/21 05:02:00;;;;;;;1.30;1.20;;;;;;;-1.08;100.00;96969.59;5173974;27;20421;-49
2022/01/21 05:04:26;;;;;;;1.85;0.65;;;;;;;-0.97;100.00;96974.16;5174274;27;20098;-51
2022/01/21 05:06:54;;;;;;;4.68;0.82;;;;;;;-0.93;100.00;96986.88;5174472;27;20069;-52
2022/01/21 05:09:23;;;;;;;1.48;0.63;;;;;;;-0.89;100.00;96991.25;5174532;27;20050;-51
2022/01/21 05:11:52;;;;;;;5.50;0.70;;;;;;;-0.86;100.00;96995.97;5174196;27;20071;-52
2022/01/21 05:14:21;;;;;;;3.15;0.88;;;;;;;-0.92;100.00;97018.06;5174613;27;20432;-50
2022/01/21 05:16:50;;;;;;;5.63;0.80;;;;;;;-0.87;100.00;97009.72;5174266;27;20057;-51
2022/01/21 05:19:18;;;;;;;2.40;0.95;;;;;;;-0.69;100.00;97019.09;5169800;27;20500;-49
2022/01/21 05:21:46;;;;;;;2.13;0.90;;;;;;;-0.64;100.00;97024.22;5173782;27;20432;-52
2022/01/21 05:24:13;;;;;;;0.93;0.80;;;;;;;-0.79;100.00;97024.97;5174331;27;20046;-51
2022/01/21 05:26:42;;;;;;;1.92;0.90;;;;;;;-0.73;100.00;97039.75;5174290;27;20184;-49
2022/01/21 05:29:10;;;;;;;2.83;0.70;;;;;;;-0.80;100.00;97034.94;5154871;27;20418;-49
2022/01/21 05:31:37;;;;;;;1.40;1.02;;;;;;;-0.72;100.00;97030.53;5155667;27;20075;-52
2022/01/21 05:34:04;;;;;;;13.43;5.47;;;;;;;-0.75;100.00;97040.06;5161492;27;20055;-49
2022/01/21 05:36:31;;;;;;;2.28;1.20;;;;;;;-0.80;100.00;97034.94;5159463;27;20058;-50
2022/01/21 05:38:58;;;;;;;6.35;2.20;;;;;;;-0.73;100.00;97034.34;5171013;27;20050;-50
2022/01/21 05:41:24;;;;;;;104.30;27.38;;;;;;;-0.72;100.00;97036.69;5166026;27;20144;-57
2022/01/21 05:43:59;;;;;;;7.93;2.88;;;;;;;-0.76;100.00;97024.28;5159639;27;20054;-57
2022/01/21 05:46:39;;;;;;;8.75;2.45;;;;;;;-0.74;100.00;97027.38;5173415;27;20046;-51
2022/01/21 05:49:05;;;;;;;13.30;3.60;;;;;;;-0.68;100.00;97025.25;5173890;27;20042;-52
2022/01/21 05:51:31;;;;;;;30.85;7.95;;;;;;;-0.72;100.00;97020.56;5173703;27;20057;-51
2022/01/21 05:53:57;;;;;;;2.25;1.45;;;;;;;-0.78;100.00;97021.13;5165025;27;20051;-58
2022/01/21 05:56:25;;;;;;;106.93;26.88;;;;;;;-0.85;100.00;97012.88;5156223;27;20046;-50
2022/01/21 05:58:52;;;;;;;8.88;2.53;;;;;;;-0.82;100.00;97026.41;5152436;27;20142;-53
2022/01/21 06:01:18;;;;;;;7.57;1.70;;;;;;;-0.83;100.00;97035.63;5161453;27;20046;-50
2022/01/21 06:03:45;;;;;;;235.32;52.40;;;;;;;-0.81;100.00;97038.75;5168576;27;20053;-49
2022/01/21 06:06:12;;;;;;;27.40;7.35;;;;;;;-0.76;100.00;97043.88;5152438;27;20523;-53
2022/01/21 06:08:38;;;;;;;59.13;17.00;;;;;;;-0.75;100.00;97056.22;5152416;27;20506;-55
2022/01/21 06:11:04;;;;;;;4.72;1.65;;;;;;;-0.68;100.00;97060.22;5167859;27;20192;-50
2022/01/21 06:13:31;;;;;;;54.05;12.75;;;;;;;-0.69;100.00;97070.22;5172391;27;20056;-56
2022/01/21 06:15:59;;;;;;;116.70;27.35;;;;;;;-0.71;100.00;97083.22;5156816;27;20046;-51
2022/01/21 06:18:25;;;;;;;17.63;4.68;;;;;;;-0.67;100.00;97092.16;5152663;27;20513;-49
2022/01/21 06:20:53;;;;;;;2.03;1.20;;;;;;;-0.62;100.00;97099.22;5153419;27;20046;-52
2022/01/21 06:23:19;;;;;;;5.63;1.80;;;;;;;-0.38;100.00;97104.50;5152562;27;20046;-51
2022/01/21 06:25:46;;;;;;;6.93;2.33;;;;;;;-0.35;100.00;97113.81;5156516;27;20461;-55
2022/01/21 06:28:12;;;;;;;155.95;39.65;;;;;;;-0.46;100.00;97116.22;5169770;27;20050;-53
2022/01/21 06:30:39;;;;;;;14.48;4.60;;;;;;;-0.67;100.00;97107.53;5160309;27;20054;-56
2022/01/21 06:33:05;;;;;;;29.13;7.40;;;;;;;-0.67;100.00;97104.84;5151809;27;20043;-52
2022/01/21 06:35:31;;;;;;;39.50;11.18;;;;;;;-0.57;100.00;97121.28;5168821;27;20102;-57
2022/01/21 06:37:58;;;;;;;6.18;2.38;;;;;;;-0.63;100.00;97111.91;5165908;27;20046;-52
2022/01/21 06:40:24;;;;;;;15.68;5.63;;;;;;;-0.55;100.00;97107.50;5156419;27;20433;-51
2022/01/21 06:42:52;;;;;;;3.70;1.73;;;;;;;-0.61;100.00;97098.88;5167874;27;20054;-53
2022/01/21 06:45:19;;;;;;;79.47;24.80;;;;;;;-0.63;100.00;97119.16;5170760;27;20050;-52
2022/01/21 06:47:46;;;;;;;28.00;9.80;;;;;;;-0.63;100.00;97113.78;5155044;27;20508;-56
2022/01/21 06:50:13;;;;;;;3.55;1.83;;;;;;;-0.62;100.00;97112.69;5162182;27;20081;-52
2022/01/21 06:52:39;;;;;;;9.02;2.45;;;;;;;-0.57;100.00;97118.59;5152868;27;20047;-50
2022/01/21 06:55:07;;;;;;;5.15;1.92;;;;;;;-0.58;100.00;97127.81;5151568;27;20050;-53
2022/01/21 06:57:37;;;;;;;4.80;1.75;;;;;;;-0.55;100.00;97129.03;5151303;27;20051;-54
2022/01/21 07:00:06;;;;;;;4.80;1.70;;;;;;;-0.47;100.00;97133.47;5151362;27;20054;-50
2022/01/21 07:02:32;;;;;;;2.08;1.13;;;;;;;-0.51;100.00;97130.69;5153424;27;20046;-54
2022/01/21 07:04:58;;;;;;;14.18;3.35;;;;;;;-0.53;100.00;97124.09;5151288;27;20047;-57
2022/01/21 07:07:25;;;;;;;7.05;2.08;;;;;;;-0.48;100.00;97123.84;5150991;27;20051;-55
2022/01/21 07:09:51;;;;;;;3.50;1.92;;;;;;;-0.39;100.00;97123.72;5151352;27;20057;-56
2022/01/21 07:12:18;;;;;;;4.78;1.30;;;;;;;-0.11;100.00;97121.00;5165904;27;20050;-58
2022/01/21 07:14:44;;;;;;;5.53;1.50;;;;;;;-0.19;100.00;97117.34;5171985;27;20049;-55
2022/01/21 07:17:10;;;;;;;4.88;2.10;;;;;;;-0.31;100.00;97103.91;5171941;27;20046;-55
2022/01/21 07:19:37;;;;;;;2.65;1.65;;;;;;;-0.23;100.00;97111.09;5172230;27;20100;-52
2022/01/21 07:22:04;;;;;;;5.28;2.08;;;;;;;-0.26;100.00;97104.47;5158570;27;20134;-54
2022/01/21 07:24:30;;;;;;;10.80;2.95;;;;;;;-0.33;100.00;97104.28;5150832;27;20052;-54
2022/01/21 07:26:56;;;;;;;9.63;3.58;;;;;;;-0.24;100.00;97110.28;5151212;27;20051;-54
2022/01/21 07:29:24;;;;;;;5.28;1.90;;;;;;;-0.32;100.00;97105.84;5151047;27;20390;-53
2022/01/21 07:31:53;;;;;;;14.63;4.10;;;;;;;-0.32;100.00;97111.22;5161216;27;20057;-55
2022/01/21 07:34:19;;;;;;;2.63;1.80;;;;;;;-0.20;100.00;97120.34;5168896;27;20505;-55
2022/01/21 07:36:46;;;;;;;7.10;2.92;;;;;;;-0.26;100.00;97117.94;5170752;27;20054;-53
2022/01/21 07:39:12;;;;;;;4.78;2.22;;;;;;;-0.21;100.00;97127.66;5136543;27;20130;-52
2022/01/21 07:41:38;;;;;;;12.00;3.20;;;;;;;-0.22;100.00;97131.50;5137084;27;20061;-52
2022/01/21 07:44:05;;;;;;;8.70;2.17;;;;;;;-0.24;100.00;97125.66;5131276;27;20051;-52
2022/01/21 07:46:32;;;;;;;2.28;1.15;;;;;;;-0.25;100.00;97130.25;5149860;27;20051;-51
2022/01/21 07:48:59;;;;;;;3.17;1.48;;;;;;;-0.23;100.00;97146.09;5150615;27;20065;-53
2022/01/21 07:51:25;;;;;;;6.00;1.90;;;;;;;-0.18;100.00;97151.22;5150358;27;20401;-54
2022/01/21 07:53:52;;;;;;;6.00;1.48;;;;;;;-0.22;100.00;97158.41;5143243;27;20818;-50
2022/01/21 07:56:18;;;;;;;9.43;1.70;;;;;;;-0.19;100.00;97157.72;5149779;27;20046;-49
2022/01/21 07:58:45;;;;;;;8.23;2.20;;;;;;;-0.23;100.00;97170.31;5150605;27;20047;-52
2022/01/21 08:01:11;;;;;;;11.00;2.42;;;;;;;-0.05;100.00;97176.97;5150061;27;20055;-53
2022/01/21 08:03:38;;;;;;;2.88;2.00;;;;;;;-0.09;100.00;97180.69;5150171;27;20505;-49
2022/01/21 08:06:05;;;;;;;8.55;2.55;;;;;;;-0.05;100.00;97179.66;5148685;27;20524;-52
2022/01/21 08:08:31;;;;;;;11.85;3.03;;;;;;;-0.06;100.00;97169.25;5150180;27;20061;-51
2022/01/21 08:10:58;;;;;;;18.63;4.03;;;;;;;-0.09;100.00;97167.22;5145705;27;20047;-52
2022/01/21 08:13:24;;;;;;;1.88;1.05;;;;;;;-0.15;100.00;97157.81;5129581;27;20047;-51
2022/01/21 08:15:50;;;;;;;7.82;1.45;;;;;;;-0.19;100.00;97157.72;5146637;27;20050;-53
2022/01/21 08:18:16;;;;;;;3.83;1.30;;;;;;;-0.10;100.00;97154.88;5150310;27;20061;-53
2022/01/21 08:20:43;;;;;;;2.58;1.50;;;;;;;-0.06;100.00;97143.09;5150088;27;20357;-51
2022/01/21 08:23:10;;;;;;;3.45;1.23;;;;;;;0.01;100.00;97139.03;5150426;27;20054;-48
2022/01/21 08:25:36;;;;;;;3.20;0.90;;;;;;;0.03;100.00;97128.66;5135045;27;20523;-51
2022/01/21 08:28:03;;;;;;;2.20;0.85;;;;;;;-0.06;100.00;97116.16;5129594;28;20047;-50
2022/01/21 08:30:29;;;;;;;1.73;0.90;;;;;;;-0.18;100.00;97083.09;5128394;27;20100;-51
2022/01/21 08:32:55;;;;;;;5.78;1.98;;;;;;;-0.29;100.00;97101.69;5129531;27;20051;-49
2022/01/21 08:35:22;;;;;;;1.33;1.05;;;;;;;-0.26;100.00;97115.25;5143703;27;20509;-53
2022/01/21 08:37:52;;;;;;;8.40;1.95;;;;;;;-0.22;100.00;97109.16;5150126;27;20047;-54
2022/01/21 08:40:19;;;;;;;4.95;1.88;;;;;;;-0.18;100.00;97115.41;5144843;27;20058;-52
2022/01/21 08:42:45;;;;;;;4.20;1.80;;;;;;;-0.16;100.00;97134.72;5152621;27;20211;-52
2022/01/21 08:45:11;;;;;;;1.70;1.17;;;;;;;-0.10;100.00;97128.75;5153503;27;20047;-53
2022/01/21 08:47:38;;;;;;;3.35;1.10;;;;;;;-0.26;100.00;97119.84;5153731;27;20066;-49
2022/01/21 08:50:08;;;;;;;10.35;5.05;;;;;;;-0.28;100.00;97130.16;5148337;27;20049;-53
2022/01/21 08:52:37;;;;;;;2.58;1.80;;;;;;;-0.17;100.00;97143.91;5153513;27;20332;-51
2022/01/21 08:55:05;;;;;;;4.30;1.90;;;;;;;-0.10;100.00;97136.81;5153605;27;20070;-54
2022/01/21 08:57:32;;;;;;;3.22;1.10;;;;;;;0.02;100.00;97143.28;5136029;27;20057;-53
2022/01/21 08:59:59;;;;;;;1.38;0.88;;;;;;;-0.01;100.00;97133.97;5144892;27;20174;-54
2022/01/21 09:02:25;;;;;;;1.10;1.00;;;;;;;-0.13;100.00;97144.81;5135862;27;20047;-54
2022/01/21 09:04:52;;;;;;;24.23;5.13;;;;;;;-0.21;100.00;97161.88;5132909;28;20047;-51
2022/01/21 09:07:18;;;;;;;2.75;1.65;;;;;;;-0.14;100.00;97200.56;5139631;27;20425;-53
2022/01/21 09:09:44;;;;;;;22.50;5.70;;;;;;;-0.13;100.00;97222.91;5153242;27;20505;-51
2022/01/21 09:12:11;;;;;;;5.80;1.77;;;;;;;-0.24;100.00;97233.38;5153232;27;20054;-54
2022/01/21 09:14:37;;;;;;;3.65;1.45;;;;;;;-0.26;100.00;97244.50;5153239;27;20047;-53
2022/01/21 09:17:04;;;;;;;5.57;2.45;;;;;;;-0.40;100.00;97245.97;5147858;27;20051;-51
2022/01/21 09:19:32;;;;;;;10.95;3.90;;;;;;;-0.41;100.00;97255.16;5132494;28;20069;-52
2022/01/21 09:22:02;;;;;;;16.58;5.22;;;;;;;-0.27;100.00;97252.88;5132871;28;20090;-52
2022/01/21 09:24:29;;;;;;;15.23;4.47;;;;;;;-0.14;100.00;97256.34;5139923;27;20057;-55
2022/01/21 09:26:55;;;;;;;12.82;3.63;;;;;;;-0.13;100.00;97274.88;5153482;27;20050;-53
2022/01/21 09:29:22;;;;;;;1.73;1.50;;;;;;;-0.25;100.00;97278.38;5153153;27;20061;-52
2022/01/21 09:31:48;;;;;;;9.88;3.22;;;;;;;-0.30;100.00;97267.03;5152732;27;20054;-54
2022/01/21 09:34:15;;;;;;;1.25;1.10;;;;;;;-0.22;100.00;97276.91;5149392;27;20054;-54
2022/01/21 09:36:42;;;;;;;4.72;1.33;;;;;;;-0.11;100.00;97274.53;5133325;27;20482;-53
2022/01/21 09:39:08;;;;;;;8.30;3.17;;;;;;;-0.05;100.00;97284.72;5131764;28;20141;-53
2022/01/21 09:41:35;;;;;;;6.43;1.10;;;;;;;0.06;100.00;97278.84;5135338;27;20055;-55
2022/01/21 09:44:03;;;;;;;17.50;3.58;;;;;;;0.03;100.00;97269.53;5143670;27;20051;-55
2022/01/21 09:46:34;;;;;;;1.85;1.40;;;;;;;0.13;100.00;97266.34;5152297;27;20046;-55
2022/01/21 09:49:19;;;;;;;1.02;1.02;;;;;;;0.05;100.00;97236.88;5152994;27;20133;-51
2022/01/21 09:51:46;;;;;;;3.20;1.80;;;;;;;-0.14;100.00;97224.03;5150555;27;20054;-51
2022/01/21 09:54:13;;;;;;;3.70;1.55;;;;;;;-0.01;100.00;97239.78;5152440;27;20061;-53
2022/01/21 09:56:42;;;;;;;2.30;1.23;;;;;;;0.03;100.00;97236.44;5139098;27;20096;-51
2022/01/21 09:59:09;;;;;;;4.43;2.42;;;;;;;0.09;100.00;97241.22;5131960;28;20058;-54
2022/01/21 10:01:36;;;;;;;2.90;1.50;;;;;;;0.16;100.00;97246.81;5131830;28;20055;-51
2022/01/21 10:04:05;;;;;;;2.78;1.10;;;;;;;0.11;100.00;97241.69;5131790;28;20110;-54
2022/01/21 10:06:32;;;;;;;4.90;2.03;;;;;;;0.09;100.00;97251.22;5141734;27;20129;-52
2022/01/21 10:09:02;;;;;;;9.75;3.25;;;;;;;0.13;100.00;97254.78;5152541;27;20057;-51
2022/01/21 10:11:28;;;;;;;1.70;1.60;;;;;;;0.20;100.00;97269.28;5152315;27;20055;-53
2022/01/21 10:13:54;;;;;;;9.77;3.10;;;;;;;0.27;100.00;97286.75;5152259;27;20057;-51
2022/01/21 10:16:21;;;;;;;9.52;3.63;;;;;;;0.30;100.00;97275.28;5143121;27;20531;-53
2022/01/21 10:19:11;;;;;;;17.95;4.85;;;;;;;0.18;100.00;97271.50;5131406;28;20051;-52
2022/01/21 10:21:43;;;;;;;5.00;1.77;;;;;;;0.17;100.00;97280.72;5125980;28;20066;-51
2022/01/21 10:24:12;;;;;;;4.78;1.80;;;;;;;0.25;100.00;97294.41;5123075;28;20089;-54
2022/01/21 10:26:47;;;;;;;3.58;1.20;;;;;;;0.21;100.00;97291.59;5142028;27;20062;-50
2022/01/21 10:29:14;;;;;;;1.80;1.30;;;;;;;0.27;100.00;97290.25;5151992;27;20424;-49
2022/01/21 10:31:52;;;;;;;4.45;1.73;;;;;;;0.28;100.00;97272.16;5151627;27;20424;-54
2022/01/21 10:34:24;;;;;;;12.38;3.85;;;;;;;0.31;100.00;97263.38;5146441;27;20521;-51
2022/01/21 10:36:55;;;;;;;2.55;1.30;;;;;;;0.32;100.00;97256.84;5131320;28;20198;-54
2022/01/21 10:39:29;;;;;;;9.25;2.78;;;;;;;0.26;100.00;97247.44;5131200;28;20058;-56
2022/01/21 10:41:57;;;;;;;3.83;1.83;;;;;;;0.39;100.00;97260.53;5145063;27;20050;-53
2022/01/21 10:44:28;;;;;;;2.33;1.08;;;;;;;0.50;100.00;97225.78;5146077;27;20133;-51
2022/01/21 10:47:04;;;;;;;13.75;2.85;;;;;;;0.32;100.00;97200.25;5133615;27;20142;-50
2022/01/21 10:49:31;;;;;;;10.23;2.97;;;;;;;0.34;100.00;97211.50;5130646;28;20051;-50
2022/01/21 10:51:57;;;;;;;9.32;3.80;;;;;;;0.25;100.00;97221.63;5143590;27;20145;-54
2022/01/21 10:54:26;;;;;;;4.22;2.33;;;;;;;0.26;100.00;97239.38;5151600;27;20455;-51
2022/01/21 10:57:10;;;;;;;2.97;1.60;;;;;;;0.30;100.00;97245.63;5150805;27;20433;-51
2022/01/21 10:59:48;;;;;;;2.38;1.60;;;;;;;0.27;100.00;97249.81;5135741;27;20051;-52
2022/01/21 11:02:15;;;;;;;32.28;3.95;;;;;;;0.14;100.00;97251.00;5144971;27;20051;-51
2022/01/21 11:04:42;;;;;;;10.27;2.97;;;;;;;0.22;100.00;97266.22;5130809;27;20138;-54
2022/01/21 11:07:11;;;;;;;5.25;1.80;;;;;;;0.27;100.00;97265.19;5130586;28;20057;-54
2022/01/21 11:09:38;;;;;;;5.60;2.40;;;;;;;0.31;100.00;97283.03;5149713;27;20175;-53
2022/01/21 11:12:09;;;;;;;3.17;1.77;;;;;;;0.35;100.00;97283.13;5150336;27;20059;-53
2022/01/21 11:14:36;;;;;;;5.55;2.25;;;;;;;0.51;100.00;97277.78;5150888;27;20042;-53
2022/01/21 11:17:07;;;;;;;3.40;1.80;;;;;;;0.56;100.00;97264.03;5151243;27;20437;-55
2022/01/21 11:19:35;;;;;;;1.52;1.25;;;;;;;0.63;100.00;97235.38;5151543;27;20478;-51
2022/01/21 11:22:04;;;;;;;2.85;1.80;;;;;;;0.58;100.00;97191.69;5139216;27;20108;-54
2022/01/21 11:24:31;;;;;;;15.48;3.65;;;;;;;0.50;100.00;97161.06;5130494;28;20105;-50
2022/01/21 11:27:12;;;;;;;4.57;1.60;;;;;;;0.46;100.00;97160.97;5130062;28;20528;-52
2022/01/21 11:29:40;;;;;;;3.60;1.70;;;;;;;0.38;100.00;97161.16;5130187;28;20054;-53
2022/01/21 11:32:07;;;;;;;18.52;5.63;;;;;;;0.42;100.00;97170.88;5141815;27;20046;-52
2022/01/21 11:34:33;;;;;;;5.28;1.40;;;;;;;0.41;100.00;97155.84;5150931;27;20103;-54
2022/01/21 11:37:00;;;;;;;3.22;1.95;;;;;;;0.37;100.00;97148.81;5150858;27;20054;-53
2022/01/21 11:39:27;;;;;;;1.58;1.48;;;;;;;0.38;100.00;97140.34;5150911;27;20043;-50
2022/01/21 11:41:56;;;;;;;4.18;1.20;;;;;;;0.48;100.00;97141.75;5147918;27;20050;-52
2022/01/21 11:44:25;;;;;;;5.05;2.25;;;;;;;0.46;100.00;97122.44;5150627;27;20096;-52
2022/01/21 11:47:15;;;;;;;5.30;1.98;;;;;;;0.48;100.00;97144.44;5150930;27;20054;-54
2022/01/21 11:49:43;;;;;;;8.60;2.22;;;;;;;0.50;100.00;97141.41;5149485;27;20054;-52
2022/01/21 11:52:12;;;;;;;3.58;1.60;;;;;;;0.33;100.00;97102.09;5144210;27;20051;-50
2022/01/21 11:54:39;;;;;;;2.50;1.17;;;;;;;0.24;100.00;97107.66;5142064;27;20050;-55
2022/01/21 11:57:07;;;;;;;13.30;1.58;;;;;;;0.25;100.00;97119.22;5150088;27;20050;-53
2022/01/21 11:59:41;;;;;;;4.00;1.65;;;;;;;0.16;100.00;97104.00;5147634;27;20062;-53
2022/01/21 12:02:23;;;;;;;6.93;2.75;;;;;;;0.26;100.00;97123.47;5129733;28;20047;-53
2022/01/21 12:04:52;;;;;;;4.35;1.60;;;;;;;0.26;100.00;97135.03;5134020;27;20401;-51
2022/01/21 12:07:54;;;;;;;1.98;1.60;;;;;;;0.32;100.00;97143.66;5138314;27;20062;-54